Time;durP1;ratioP1;P1;durP2;ratioP2;P2;SDS_P1;SDS_P2;PMS_P1;PMS_P2;Temp;Humidity;BMP_temperature;BMP_pressure;BME280_temperature;BME280_humidity;BME280_pressure;Samples;Min_cycle;Max_cycle;Signal;HPM_P1;HPM_P2
2022/05/21 00:00:03;;;;;;;5.07;1.75;;;;;;;17.18;52.11;99986.50;6247637;28;20037;-73
2022/05/21 00:03:05;;;;;;;;;;;;;;;17.10;51.61;99976.63;6247792;28;20045;-73
2022/05/21 00:06:06;;;;;;;2.25;1.55;;;;;;;17.08;52.08;99983.84;6247438;28;19925;-74
2022/05/21 00:09:08;;;;;;;3.80;1.50;;;;;;;17.05;52.16;99978.84;6229457;28;20408;-76
2022/05/21 00:12:09;;;;;;;;;;;;;;;17.09;51.79;99985.53;6213286;28;20050;-76
2022/05/21 00:15:12;;;;;;;6.68;2.03;;;;;;;17.07;51.81;99987.47;6229923;28;20344;-75
2022/05/21 00:18:13;;;;;;;5.13;1.85;;;;;;;17.05;52.62;99978.03;6229769;28;20060;-75
2022/05/21 00:21:14;;;;;;;4.70;1.65;;;;;;;17.02;52.60;99973.00;6229756;28;20472;-75
2022/05/21 00:24:15;;;;;;;11.15;1.80;;;;;;;16.95;52.39;99978.00;6229679;28;20124;-75
2022/05/21 00:27:15;;;;;;;2.72;1.70;;;;;;;16.90;53.05;99969.66;6213556;28;20130;-75
2022/05/21 00:30:17;;;;;;;4.68;1.70;;;;;;;16.88;52.98;99958.44;6213355;28;20558;-73
2022/05/21 00:33:18;;;;;;;6.00;1.77;;;;;;;16.81;53.01;99955.50;6234047;28;20108;-76
2022/05/21 00:36:19;;;;;;;3.30;1.83;;;;;;;16.80;53.01;99947.69;6251819;28;20045;-76
2022/05/21 00:39:19;;;;;;;4.25;1.70;;;;;;;16.71;53.42;99944.91;6234025;28;20061;-76
2022/05/21 00:42:20;;;;;;;4.93;1.90;;;;;;;16.76;53.35;99934.00;6251362;28;20042;-73
2022/05/21 00:45:21;;;;;;;3.08;1.55;;;;;;;16.73;53.54;99927.16;6233211;28;20588;-73
2022/05/21 00:48:22;;;;;;;2.83;1.88;;;;;;;16.67;53.33;99922.44;6251255;28;20449;-74
2022/05/21 00:51:27;;;;;;;3.40;1.63;;;;;;;16.69;53.65;99909.16;6233614;28;20053;-74
2022/05/21 00:54:30;;;;;;;3.10;1.75;;;;;;;16.62;53.44;99905.41;6233956;28;20049;-75
2022/05/21 00:57:48;;;;;;;9.25;1.70;;;;;;;16.50;55.06;99899.41;6233823;28;20124;-73
2022/05/21 01:00:50;;;;;;;2.35;1.42;;;;;;;16.45;54.58;99884.03;6251365;28;20123;-73
2022/05/21 01:03:51;;;;;;;6.80;1.70;;;;;;;16.48;54.27;99883.75;6233652;28;20049;-74
2022/05/21 01:06:58;;;;;;;3.45;1.70;;;;;;;16.41;54.48;99894.94;6217033;28;20053;-73
2022/05/21 01:10:00;;;;;;;3.22;1.80;;;;;;;16.56;53.69;99898.03;6250780;28;20103;-74
2022/05/21 01:13:04;;;;;;;9.93;1.77;;;;;;;16.53;53.87;99899.13;6251024;28;20491;-75
2022/05/21 01:16:05;;;;;;;5.28;1.90;;;;;;;16.51;53.41;99899.28;6250602;28;20041;-75
2022/05/21 01:19:09;;;;;;;2.58;1.60;;;;;;;16.53;53.26;99891.22;6250796;28;20091;-75
2022/05/21 01:22:10;;;;;;;2.85;1.50;;;;;;;16.51;53.72;99890.53;6233150;28;20044;-76
2022/05/21 01:25:14;;;;;;;8.10;1.70;;;;;;;16.49;52.82;99889.84;6250944;28;20468;-73
2022/05/21 01:28:23;;;;;;;6.88;1.60;;;;;;;16.51;53.13;99896.66;6233159;28;20045;-75
2022/05/21 01:31:23;;;;;;;6.10;1.52;;;;;;;16.46;52.94;99893.56;6232707;28;20103;-76
2022/05/21 01:34:26;;;;;;;2.58;1.60;;;;;;;16.46;53.32;99890.13;6232922;28;20937;-76
2022/05/21 01:37:28;;;;;;;10.48;1.77;;;;;;;16.43;53.20;99893.00;6249875;28;20056;-74
2022/05/21 01:40:30;;;;;;;3.13;1.52;;;;;;;16.47;52.73;99899.66;6232532;28;20045;-74
2022/05/21 01:46:50;;;;;;;8.55;2.45;;;;;;;16.46;53.11;99917.28;6235047;28;20045;-73
2022/05/21 01:49:51;;;;;;;5.18;1.50;;;;;;;16.41;52.74;99910.75;6231914;28;20484;-74
2022/05/21 01:52:52;;;;;;;4.38;1.83;;;;;;;16.46;52.71;99917.28;6215885;28;20523;-73
2022/05/21 01:55:53;;;;;;;5.22;1.60;;;;;;;16.39;53.20;99920.56;6232157;28;20045;-73
2022/05/21 01:58:55;;;;;;;3.47;1.70;;;;;;;16.40;52.71;99925.72;6216152;28;20533;-73
2022/05/21 02:01:56;;;;;;;8.02;1.40;;;;;;;16.39;52.84;99931.97;6232537;28;20128;-75
2022/05/21 02:04:57;;;;;;;4.00;1.48;;;;;;;16.36;53.00;99932.22;6232055;28;20049;-73
2022/05/21 02:07:57;;;;;;;2.85;1.65;;;;;;;16.36;53.06;99934.03;6215427;28;20053;-73
2022/05/21 02:10:58;;;;;;;8.90;1.80;;;;;;;16.33;53.20;99945.66;6231793;28;20051;-75
2022/05/21 02:13:59;;;;;;;3.92;1.45;;;;;;;16.28;53.06;99935.50;6232135;28;20037;-76
2022/05/21 02:17:00;;;;;;;2.15;1.50;;;;;;;16.29;53.70;99931.09;6249088;28;20415;-73
2022/05/21 02:20:01;;;;;;;7.55;1.38;;;;;;;16.29;53.73;99920.56;6231205;28;20121;-73
2022/05/21 02:23:02;;;;;;;3.90;1.60;;;;;;;16.22;53.92;99925.50;6249331;28;20041;-75
2022/05/21 02:26:03;;;;;;;2.53;1.38;;;;;;;16.20;53.97;99916.91;6249382;28;20052;-73
2022/05/21 02:29:05;;;;;;;3.80;1.53;;;;;;;16.19;54.15;99911.81;6231504;28;20107;-75
2022/05/21 02:32:06;;;;;;;2.70;1.70;;;;;;;16.15;54.06;99905.97;6231562;28;20065;-75
2022/05/21 02:35:07;;;;;;;4.63;1.50;;;;;;;16.13;54.32;99912.34;6248746;28;20045;-76
2022/05/21 02:41:28;;;;;;;3.13;1.63;;;;;;;16.15;54.21;99915.66;6234092;28;20472;-76
2022/05/21 02:44:29;;;;;;;3.65;1.83;;;;;;;16.15;54.12;99913.03;6231297;28;20096;-75
2022/05/21 02:47:31;;;;;;;5.97;1.70;;;;;;;16.07;54.67;99892.63;6231139;28;20511;-74
2022/05/21 02:50:34;;;;;;;2.80;1.52;;;;;;;16.11;54.52;99899.28;6248674;28;20252;-76
2022/05/21 02:53:35;;;;;;;4.95;1.55;;;;;;;16.06;54.52;99904.97;6230723;28;20128;-73
2022/05/21 02:56:43;;;;;;;6.18;1.55;;;;;;;16.05;54.44;99916.44;6247702;28;20041;-73
2022/05/21 02:59:44;;;;;;;7.43;1.60;;;;;;;16.14;54.35;99929.78;6247951;28;20469;-75
2022/05/21 03:02:46;;;;;;;6.40;1.77;;;;;;;16.10;54.53;99931.81;6230844;28;20033;-74
2022/05/21 03:05:47;;;;;;;7.85;1.88;;;;;;;16.07;55.07;99929.47;6248234;28;20124;-75
2022/05/21 03:12:07;;;;;;;2.63;1.50;;;;;;;16.01;55.09;99925.56;6219631;28;20052;-74
2022/05/21 03:15:08;;;;;;;4.72;1.80;;;;;;;16.00;55.38;99921.28;6247836;28;20045;-74
2022/05/21 03:18:11;;;;;;;3.90;1.80;;;;;;;15.92;55.82;99926.38;6230255;28;20086;-76
2022/05/21 03:21:14;;;;;;;1.73;1.23;;;;;;;15.88;55.93;99931.06;6248058;28;20048;-75
2022/05/21 03:24:14;;;;;;;;;;;;;;;15.94;56.10;99932.34;6248744;28;20045;-73
2022/05/21 03:27:15;;;;;;;3.10;1.83;;;;;;;15.92;56.33;99918.47;6230588;28;19944;-75
2022/05/21 03:30:20;;;;;;;4.00;1.67;;;;;;;15.88;56.60;99924.97;6229666;28;20144;-76
2022/05/21 03:33:21;;;;;;;5.85;1.83;;;;;;;15.87;56.61;99926.75;6229709;28;20050;-75
2022/05/21 03:36:22;;;;;;;2.85;1.60;;;;;;;15.84;56.88;99931.44;6229899;28;20053;-75
2022/05/21 03:39:23;;;;;;;3.20;1.48;;;;;;;15.86;56.95;99932.97;6247889;28;20556;-76
2022/05/21 03:42:24;;;;;;;3.50;1.50;;;;;;;15.87;57.00;99923.28;6230213;28;20061;-73
2022/05/21 03:45:27;;;;;;;5.07;1.88;;;;;;;15.80;57.54;99925.59;6213802;28;20049;-74
2022/05/21 03:48:27;;;;;;;6.53;1.80;;;;;;;15.81;56.92;99927.25;6230444;28;20049;-74
2022/05/21 03:51:28;;;;;;;5.45;1.70;;;;;;;15.81;57.59;99926.44;6197454;28;20080;-76
2022/05/21 03:54:29;;;;;;;2.45;1.60;;;;;;;15.83;57.75;99922.69;6247570;28;20045;-74
2022/05/21 03:57:31;;;;;;;5.97;2.10;;;;;;;15.88;57.83;99919.69;6247666;28;20056;-76
2022/05/21 04:00:32;;;;;;;11.02;2.05;;;;;;;15.97;57.57;99911.00;6229902;28;20057;-74
2022/05/21 04:03:34;;;;;;;2.35;1.65;;;;;;;15.99;57.64;99913.50;6230332;28;20041;-74
2022/05/21 04:06:34;;;;;;;13.32;1.90;;;;;;;16.08;57.85;99924.09;6232113;28;20136;-74
2022/05/21 04:09:36;;;;;;;6.07;1.50;;;;;;;16.10;57.37;99945.00;6252684;28;20047;-74
2022/05/21 04:12:37;;;;;;;4.00;2.00;;;;;;;16.10;58.00;99950.25;6234489;28;20140;-75
2022/05/21 04:15:38;;;;;;;6.35;1.70;;;;;;;16.14;58.13;99949.03;6252328;28;20042;-75
2022/05/21 04:18:39;;;;;;;5.03;2.05;;;;;;;16.17;58.19;99966.38;6234709;28;20050;-75
2022/05/21 04:21:39;;;;;;;3.58;1.80;;;;;;;16.29;57.53;99958.25;6234471;28;20072;-76
2022/05/21 04:24:40;;;;;;;5.05;1.95;;;;;;;16.32;58.16;99957.97;6234584;28;20423;-74
2022/05/21 04:27:42;;;;;;;8.63;2.20;;;;;;;16.35;57.95;99956.91;6218129;28;20124;-75
2022/05/21 04:30:43;;;;;;;5.50;2.25;;;;;;;16.41;57.89;99960.78;6234110;28;20428;-76
2022/05/21 04:33:43;;;;;;;5.72;2.50;;;;;;;16.51;58.04;99951.09;6234034;28;20060;-74
2022/05/21 04:36:44;;;;;;;8.55;2.50;;;;;;;16.47;58.52;99940.03;6234145;28;20041;-77
2022/05/21 04:39:45;;;;;;;6.38;3.17;;;;;;;16.63;58.30;99946.56;6234247;28;20076;-74
2022/05/21 04:42:47;;;;;;;4.93;2.28;;;;;;;16.64;59.12;99937.72;6251018;28;20100;-73
2022/05/21 04:45:47;;;;;;;6.72;2.50;;;;;;;16.73;58.38;99945.59;6250936;28;20061;-75
2022/05/21 04:48:48;;;;;;;3.60;2.25;;;;;;;16.81;58.79;99947.59;6233935;28;20073;-76
2022/05/21 04:51:49;;;;;;;5.82;2.50;;;;;;;16.88;58.49;99947.88;6185435;28;20049;-76
2022/05/21 04:54:50;;;;;;;10.82;2.15;;;;;;;16.93;58.77;99945.69;6217151;28;20050;-74
2022/05/21 04:57:50;;;;;;;9.82;2.33;;;;;;;17.05;59.31;99949.88;6217028;28;20064;-74
2022/05/21 05:00:51;;;;;;;4.40;2.30;;;;;;;17.14;59.34;99937.66;6233412;28;20492;-76
2022/05/21 05:03:52;;;;;;;5.30;2.30;;;;;;;17.40;58.97;99931.78;6217055;28;20453;-74
2022/05/21 05:06:53;;;;;;;13.38;2.40;;;;;;;17.55;58.44;99924.31;6216732;28;20044;-74
2022/05/21 05:09:53;;;;;;;6.72;2.10;;;;;;;17.66;57.95;99921.47;6232670;28;20507;-74
2022/05/21 05:12:54;;;;;;;5.10;2.40;;;;;;;17.83;58.23;99923.44;6233042;28;20143;-74
2022/05/21 05:15:55;;;;;;;13.15;2.45;;;;;;;17.83;58.01;99912.88;6251058;28;20041;-76
2022/05/21 05:18:56;;;;;;;4.00;2.63;;;;;;;17.96;58.45;99914.38;6216443;28;20091;-77
2022/05/21 05:21:58;;;;;;;6.57;2.53;;;;;;;18.02;58.07;99913.78;6250775;28;20053;-77
2022/05/21 05:24:58;;;;;;;10.75;3.35;;;;;;;18.20;58.36;99914.69;6250925;28;20619;-76
2022/05/21 05:28:00;;;;;;;8.60;2.80;;;;;;;18.17;58.01;99916.78;6250384;28;20045;-74
2022/05/21 05:31:01;;;;;;;11.13;3.17;;;;;;;18.20;58.17;99919.09;6232968;28;20052;-75
2022/05/21 05:34:02;;;;;;;11.50;3.53;;;;;;;18.35;58.56;99908.91;6200374;28;20081;-76
2022/05/21 05:37:03;;;;;;;6.85;3.20;;;;;;;18.48;58.53;99910.19;6216488;28;20080;-74
2022/05/21 05:40:07;;;;;;;8.18;3.00;;;;;;;18.46;57.84;99916.63;6250289;28;20041;-74
2022/05/21 05:43:09;;;;;;;7.47;2.83;;;;;;;18.55;58.93;99922.81;6232711;28;20050;-74
2022/05/21 05:46:10;;;;;;;8.65;2.80;;;;;;;18.64;59.24;99911.38;6232711;28;20046;-74
2022/05/21 05:49:10;;;;;;;12.13;2.90;;;;;;;18.77;58.62;99903.91;6200003;28;20045;-74
2022/05/21 05:52:11;;;;;;;11.88;2.78;;;;;;;18.85;59.23;99911.94;6214933;28;20474;-77
2022/05/21 05:55:12;;;;;;;11.48;2.95;;;;;;;18.98;59.45;99900.97;6249412;28;20045;-74
2022/05/21 06:01:34;;;;;;;8.68;3.20;;;;;;;19.29;61.53;99885.56;6248995;28;20052;-77
2022/05/21 06:04:35;;;;;;;13.98;3.53;;;;;;;19.44;61.26;99875.25;6231752;28;20092;-76
2022/05/21 06:07:44;;;;;;;23.33;3.40;;;;;;;19.58;61.86;99855.31;6258348;28;20041;-76
2022/05/21 06:10:48;;;;;;;22.42;3.72;;;;;;;19.68;61.83;99849.91;6231316;28;20045;-77
2022/05/21 06:13:49;;;;;;;15.02;3.70;;;;;;;19.73;62.73;99851.13;6215300;28;20061;-75
2022/05/21 06:16:50;;;;;;;15.02;3.65;;;;;;;19.81;62.48;99845.06;6230357;28;20077;-75
2022/05/21 06:19:52;;;;;;;12.02;3.97;;;;;;;19.81;62.34;99847.69;6248584;28;20476;-74
2022/05/21 06:22:53;;;;;;;23.25;4.15;;;;;;;19.74;63.06;99844.00;6214531;28;20056;-75
2022/05/21 06:25:54;;;;;;;14.10;3.70;;;;;;;19.63;63.63;99813.31;6248380;28;20069;-74
2022/05/21 06:28:55;;;;;;;4.95;3.60;;;;;;;19.59;63.96;99817.28;6230151;28;20041;-76
2022/05/21 06:31:57;;;;;;;8.50;3.33;;;;;;;19.58;65.25;99799.75;6214442;28;20092;-76
2022/05/21 06:34:58;;;;;;;13.52;4.20;;;;;;;19.56;65.92;99804.38;6230669;28;20041;-76
2022/05/21 06:37:58;;;;;;;7.80;3.97;;;;;;;19.55;66.15;99783.34;6214266;28;20053;-76
2022/05/21 06:40:59;;;;;;;10.00;4.23;;;;;;;19.44;68.19;99761.47;6214379;28;20051;-75
2022/05/21 06:44:00;;;;;;;9.43;3.80;;;;;;;19.51;67.73;99775.72;6229912;28;20065;-75
2022/05/21 06:47:01;;;;;;;7.90;3.60;;;;;;;19.62;67.74;99753.47;6214437;28;20061;-76
2022/05/21 06:50:03;;;;;;;12.67;5.87;;;;;;;19.67;67.96;99782.91;6230137;28;20642;-76
2022/05/21 06:53:04;;;;;;;;;;;;;;;19.71;67.79;99776.34;6230588;28;20496;-74
2022/05/21 06:56:14;;;;;;;15.35;6.43;;;;;;;19.77;67.68;99748.41;6213633;28;19948;-74
2022/05/21 06:59:16;;;;;;;22.10;6.75;;;;;;;19.83;67.37;99763.66;6230190;28;20049;-74
2022/05/21 07:02:17;;;;;;;31.20;6.45;;;;;;;20.05;66.53;99780.75;6229862;28;20119;-75
2022/05/21 07:08:37;;;;;;;13.43;4.43;;;;;;;20.68;63.12;99794.47;6216001;28;20440;-76
2022/05/21 07:11:39;;;;;;;8.57;3.67;;;;;;;20.95;63.10;99793.28;6197464;28;20067;-76
2022/05/21 07:14:40;;;;;;;10.95;3.80;;;;;;;21.11;61.40;99782.66;6247514;28;20045;-74
2022/05/21 07:17:42;;;;;;;15.23;3.60;;;;;;;21.27;62.02;99792.44;6229983;28;20463;-76
2022/05/21 07:20:43;;;;;;;13.43;3.67;;;;;;;21.18;62.43;99789.94;6228946;28;20529;-76
2022/05/21 07:23:46;;;;;;;14.50;3.85;;;;;;;21.19;63.55;99783.63;6229640;28;20140;-74
2022/05/21 07:26:47;;;;;;;18.67;3.55;;;;;;;21.19;65.39;99773.88;6229964;28;20053;-74
2022/05/21 07:29:48;;;;;;;13.90;3.67;;;;;;;21.14;64.11;99786.78;6213361;28;20259;-75
2022/05/21 07:32:51;;;;;;;15.10;4.05;;;;;;;21.26;63.83;99803.19;6213168;28;20546;-76
2022/05/21 07:35:52;;;;;;;17.23;5.50;;;;;;;21.39;63.15;99800.00;6229933;28;20041;-76
2022/05/21 07:38:53;;;;;;;35.13;8.10;;;;;;;21.56;62.80;99822.91;6197043;28;20060;-75
2022/05/21 07:41:54;;;;;;;17.93;6.67;;;;;;;21.75;62.90;99810.22;6229265;28;20152;-75
2022/05/21 07:44:56;;;;;;;17.60;4.13;;;;;;;21.77;63.11;99814.38;6197006;28;20053;-75
2022/05/21 07:47:57;;;;;;;8.25;3.78;;;;;;;21.90;63.30;99825.25;6247115;28;20112;-73
2022/05/21 07:51:00;;;;;;;18.87;3.80;;;;;;;22.22;62.03;99820.78;6212858;28;20479;-74
2022/05/21 07:54:01;;;;;;;11.30;3.35;;;;;;;22.67;59.92;99829.00;6246752;28;20041;-73
2022/05/21 07:57:02;;;;;;;10.27;3.47;;;;;;;22.83;60.25;99815.56;6213021;28;20041;-76
2022/05/21 08:00:06;;;;;;;;;;;;;;;23.46;60.08;99813.50;6213518;28;20114;-74
2022/05/21 08:03:09;;;;;;;8.73;3.50;;;;;;;24.07;57.75;99813.31;6228936;28;20322;-76
2022/05/21 08:06:10;;;;;;;13.02;3.50;;;;;;;24.45;54.64;99821.09;6213009;28;20141;-74
2022/05/21 08:09:12;;;;;;;7.30;2.83;;;;;;;24.11;55.70;99816.41;6212931;28;20061;-74
2022/05/21 08:12:14;;;;;;;5.68;2.60;;;;;;;23.73;57.07;99814.69;6196699;28;20060;-75
2022/05/21 08:15:16;;;;;;;11.98;3.28;;;;;;;23.53;57.81;99817.09;6212895;28;20053;-74
2022/05/21 08:18:17;;;;;;;13.70;3.47;;;;;;;23.47;58.80;99801.88;6212680;28;20077;-74
2022/05/21 08:21:18;;;;;;;7.57;2.77;;;;;;;23.49;59.75;99793.66;6196417;28;20045;-74
2022/05/21 08:27:38;;;;;;;7.20;2.85;;;;;;;24.16;59.18;99797.22;6227864;28;20057;-74
2022/05/21 08:30:40;;;;;;;11.60;3.30;;;;;;;23.99;58.37;99804.56;6246479;28;20106;-77
2022/05/21 08:33:42;;;;;;;7.30;3.17;;;;;;;24.59;59.47;99799.94;6246558;28;20041;-74
2022/05/21 08:36:43;;;;;;;8.27;2.85;;;;;;;25.18;57.61;99786.22;6243560;28;20104;-75
2022/05/21 08:39:43;;;;;;;8.33;2.70;;;;;;;25.26;56.66;99810.13;6196238;28;20057;-76
2022/05/21 08:42:55;;;;;;;9.27;2.97;;;;;;;25.07;56.55;99810.78;6212418;28;20057;-74
2022/05/21 08:46:08;;;;;;;8.10;2.85;;;;;;;24.83;57.65;99799.53;6212494;28;20381;-76
2022/05/21 08:49:24;;;;;;;18.50;2.58;;;;;;;24.78;56.42;99811.78;6212207;28;20057;-77
2022/05/21 08:52:49;;;;;;;11.75;2.40;;;;;;;24.83;56.62;99822.69;6247912;28;20076;-77
2022/05/21 08:55:53;;;;;;;10.98;2.83;;;;;;;24.46;59.00;99821.91;6232802;28;20045;-74
2022/05/21 08:59:05;;;;;;;3.60;2.40;;;;;;;24.16;60.76;99807.88;6232285;28;20049;-77
2022/05/21 09:02:14;;;;;;;8.32;2.92;;;;;;;24.04;61.12;99813.66;6250704;28;20049;-77
2022/05/21 09:05:17;;;;;;;6.22;3.10;;;;;;;23.93;60.49;99795.50;6232694;28;20046;-77
2022/05/21 09:08:25;;;;;;;13.88;2.72;;;;;;;24.05;60.92;99783.34;6250679;28;20064;-74
2022/05/21 09:11:41;;;;;;;8.20;2.63;;;;;;;24.53;59.37;99791.66;6232418;28;20570;-76
2022/05/21 09:14:43;;;;;;;8.68;2.80;;;;;;;25.09;57.34;99787.41;6216289;28;20077;-77
2022/05/21 09:17:44;;;;;;;6.40;2.45;;;;;;;25.89;55.28;99775.34;6232548;28;20049;-77
2022/05/21 09:21:11;;;;;;;7.67;2.50;;;;;;;25.63;55.48;99776.03;6216045;28;20141;-78
2022/05/21 09:24:34;;;;;;;5.97;2.38;;;;;;;25.35;55.11;99768.09;6232506;28;20274;-77
2022/05/21 09:27:39;;;;;;;9.23;2.58;;;;;;;25.49;54.94;99769.81;6232299;28;20049;-76
2022/05/21 09:30:53;;;;;;;3.83;1.98;;;;;;;25.61;55.00;99771.91;6231946;28;20416;-75
2022/05/21 09:33:55;;;;;;;6.47;2.00;;;;;;;25.24;55.77;99764.09;6215819;28;20519;-74
2022/05/21 09:36:57;;;;;;;8.35;2.25;;;;;;;25.61;55.83;99767.38;6215734;28;20140;-74
2022/05/21 09:40:00;;;;;;;6.05;2.25;;;;;;;26.33;55.61;99763.31;6232342;28;20046;-75
2022/05/21 09:46:45;;;;;;;7.72;2.30;;;;;;;26.12;54.20;99744.78;6249628;28;20124;-74
2022/05/21 09:50:00;;;;;;;10.93;2.35;;;;;;;26.25;53.61;99754.66;6231633;28;20056;-74
2022/05/21 09:53:01;;;;;;;5.68;1.95;;;;;;;26.29;55.64;99750.56;6231768;28;20041;-77
2022/05/21 09:56:19;;;;;;;7.13;2.57;;;;;;;26.16;55.43;99753.22;6231689;28;20416;-77
2022/05/21 09:59:27;;;;;;;5.10;2.05;;;;;;;26.16;54.27;99742.53;6215167;28;20052;-79
2022/05/21 10:02:40;;;;;;;5.72;2.20;;;;;;;26.87;53.40;99742.81;6231539;28;20064;-74
2022/05/21 10:05:47;;;;;;;13.75;3.03;;;;;;;26.80;54.81;99733.94;6248407;28;20076;-77
2022/05/21 10:12:26;;;;;;;7.78;2.33;;;;;;;26.78;53.68;99735.19;6231106;28;20046;-76
2022/05/21 10:15:39;;;;;;;5.55;2.05;;;;;;;27.28;53.16;99732.84;6231274;28;20534;-75
2022/05/21 10:18:53;;;;;;;4.25;2.13;;;;;;;27.53;52.86;99733.00;6230993;28;20539;-75
2022/05/21 10:22:32;;;;;;;4.90;2.25;;;;;;;27.31;52.18;99733.25;6218833;28;20053;-75
2022/05/21 10:25:48;;;;;;;7.82;2.47;;;;;;;27.36;52.96;99729.13;6230657;28;20191;-75
2022/05/21 10:28:57;;;;;;;6.88;2.42;;;;;;;27.85;51.58;99735.72;6230896;28;20053;-75
2022/05/21 10:32:31;;;;;;;11.30;2.55;;;;;;;27.64;50.23;99732.31;6230640;28;20072;-75
2022/05/21 10:35:46;;;;;;;7.32;2.50;;;;;;;27.52;51.89;99725.97;6230562;28;20057;-75
2022/05/21 10:39:15;;;;;;;8.98;2.40;;;;;;;27.89;51.82;99728.91;6230702;28;20053;-75
2022/05/21 10:42:38;;;;;;;9.27;2.80;;;;;;;27.77;50.85;99730.59;6248439;28;20045;-75
2022/05/21 10:45:39;;;;;;;6.28;2.10;;;;;;;28.20;50.45;99727.28;6214024;28;20508;-75
2022/05/21 10:48:48;;;;;;;7.57;2.38;;;;;;;28.11;50.05;99734.78;6247071;28;20091;-75
2022/05/21 10:52:10;;;;;;;5.30;2.20;;;;;;;28.13;49.33;99727.34;6246787;28;20077;-75
2022/05/21 10:55:36;;;;;;;9.30;2.42;;;;;;;28.02;49.49;99726.16;6246432;28;20126;-75
2022/05/21 10:58:58;;;;;;;8.00;2.58;;;;;;;27.53;50.04;99716.91;6213932;28;20471;-74
2022/05/21 11:02:43;;;;;;;6.65;2.40;;;;;;;27.99;50.81;99715.88;6213774;28;20045;-73
2022/05/21 11:06:13;;;;;;;7.25;2.20;;;;;;;28.43;48.54;99700.69;6186912;28;20046;-74
2022/05/21 11:09:30;;;;;;;6.95;2.30;;;;;;;28.41;48.31;99710.00;6223273;28;20045;-75
2022/05/21 11:12:58;;;;;;;9.68;2.67;;;;;;;28.25;48.19;99706.84;6221736;28;20057;-74
2022/05/21 11:16:24;;;;;;;8.95;2.60;;;;;;;28.28;46.89;99695.66;6222772;28;20044;-75
2022/05/21 11:19:48;;;;;;;5.18;2.45;;;;;;;28.65;44.89;99703.84;6205520;28;20100;-74
2022/05/21 11:22:58;;;;;;;5.97;1.80;;;;;;;28.69;43.48;99699.66;6222832;28;20181;-74
2022/05/21 11:26:09;;;;;;;8.20;2.30;;;;;;;28.25;43.22;99690.75;6205281;28;20053;-76
2022/05/21 11:29:25;;;;;;;4.18;2.10;;;;;;;28.61;39.82;99681.16;6205098;28;20050;-75
2022/05/21 11:39:20;;;;;;;10.43;2.00;;;;;;;28.63;35.14;99680.94;6196938;28;20142;-75
2022/05/21 11:42:32;;;;;;;7.93;2.42;;;;;;;28.82;35.44;99676.44;6197094;28;20050;-75
2022/05/21 11:45:33;;;;;;;27.17;3.05;;;;;;;28.49;36.95;99673.00;6180627;28;20046;-75
2022/05/21 11:48:34;;;;;;;6.93;2.00;;;;;;;28.86;35.14;99683.00;6198279;28;20034;-75
2022/05/21 11:51:36;;;;;;;18.85;2.33;;;;;;;29.02;32.47;99670.84;6196930;28;20141;-75
2022/05/21 11:54:49;;;;;;;13.57;2.13;;;;;;;28.79;32.89;99680.38;6196774;28;20043;-75
2022/05/21 11:57:55;;;;;;;21.42;2.10;;;;;;;29.03;29.71;99673.28;6198137;28;20045;-74
2022/05/21 12:00:56;;;;;;;11.38;1.95;;;;;;;28.44;30.83;99655.91;6198060;28;20043;-74
2022/05/21 12:03:57;;;;;;;5.13;1.85;;;;;;;28.97;31.54;99657.25;6213199;28;20049;-74
2022/05/21 12:06:57;;;;;;;21.27;2.35;;;;;;;29.03;31.01;99672.47;6213701;28;20073;-75
2022/05/21 12:10:09;;;;;;;13.45;1.75;;;;;;;29.10;29.08;99659.81;6219789;28;20054;-74
2022/05/21 12:13:21;;;;;;;29.80;2.67;;;;;;;28.98;31.05;99658.91;6205238;28;20060;-75
2022/05/21 12:16:22;;;;;;;6.65;1.60;;;;;;;29.11;28.47;99654.22;6220247;28;20050;-74
2022/05/21 12:19:44;;;;;;;15.15;1.73;;;;;;;28.96;29.22;99645.72;6220863;28;20108;-74
2022/05/21 12:22:50;;;;;;;6.82;1.48;;;;;;;28.96;29.29;99640.34;6204424;28;20188;-74
2022/05/21 12:25:57;;;;;;;6.40;1.70;;;;;;;28.60;28.89;99631.22;6220656;28;20053;-75
2022/05/21 12:29:10;;;;;;;8.82;1.55;;;;;;;28.65;29.53;99643.97;6184525;28;20186;-74
2022/05/21 12:32:17;;;;;;;11.13;1.42;;;;;;;28.27;27.35;99636.84;6216954;28;20073;-73
2022/05/21 12:35:47;;;;;;;9.10;1.75;;;;;;;28.28;27.76;99628.59;6208929;28;20530;-74
2022/05/21 12:38:49;;;;;;;20.80;1.80;;;;;;;28.91;27.30;99641.00;6208905;28;20069;-74
2022/05/21 12:41:53;;;;;;;11.25;1.60;;;;;;;29.00;27.87;99627.28;6192507;28;20046;-73
2022/05/21 12:44:54;;;;;;;12.45;1.75;;;;;;;28.55;28.96;99625.69;6226356;28;20049;-74
2022/05/21 12:48:04;;;;;;;11.27;1.60;;;;;;;28.66;29.53;99621.44;6223511;28;20507;-73
2022/05/21 12:51:08;;;;;;;10.13;1.92;;;;;;;28.65;30.56;99615.28;6232983;28;20049;-72
2022/05/21 12:54:27;;;;;;;7.55;1.98;;;;;;;28.11;31.49;99625.66;6232705;28;20049;-73
2022/05/21 12:57:31;;;;;;;7.03;1.88;;;;;;;28.33;32.55;99622.56;6250664;28;20124;-74
2022/05/21 13:00:33;;;;;;;7.18;2.00;;;;;;;27.68;33.05;99653.13;6233117;28;20044;-74
2022/05/21 13:03:35;;;;;;;9.55;2.20;;;;;;;27.69;34.04;99648.59;6250507;28;20034;-74
2022/05/21 13:06:37;;;;;;;5.53;1.60;;;;;;;28.05;32.71;99631.06;6232634;28;20132;-74
2022/05/21 13:09:53;;;;;;;13.85;2.10;;;;;;;27.72;33.33;99630.22;6232435;28;20100;-75
2022/05/21 13:13:01;;;;;;;7.22;2.10;;;;;;;27.67;33.27;99618.50;6232654;28;20056;-75
2022/05/21 13:16:06;;;;;;;9.23;2.05;;;;;;;27.84;34.30;99616.97;6230386;28;20049;-75
2022/05/21 13:19:29;;;;;;;6.35;1.80;;;;;;;27.55;34.08;99618.38;6228209;28;20041;-74
2022/05/21 13:22:37;;;;;;;10.45;2.00;;;;;;;27.99;33.04;99610.50;6222463;28;20492;-75
2022/05/21 13:25:39;;;;;;;11.82;1.83;;;;;;;27.90;32.93;99612.59;6231648;28;20056;-74
2022/05/21 13:28:40;;;;;;;3.67;1.80;;;;;;;27.87;32.83;99610.38;6216284;28;20042;-73
2022/05/21 13:31:42;;;;;;;7.45;2.30;;;;;;;27.56;34.35;99609.28;6232344;28;20493;-74
2022/05/21 13:34:42;;;;;;;8.77;1.73;;;;;;;27.18;34.04;99622.63;6216281;28;20061;-75
2022/05/21 13:37:44;;;;;;;8.50;1.85;;;;;;;27.12;34.93;99617.13;6215575;28;20061;-75
2022/05/21 13:40:52;;;;;;;10.13;2.10;;;;;;;27.30;35.61;99608.41;6216194;28;20049;-75
2022/05/21 13:43:54;;;;;;;13.13;2.35;;;;;;;27.21;35.29;99615.00;6230714;28;20068;-74
2022/05/21 13:47:00;;;;;;;14.25;2.42;;;;;;;27.25;35.51;99608.22;6231943;28;20042;-74
2022/05/21 13:50:01;;;;;;;9.95;2.00;;;;;;;27.25;34.43;99618.94;6216070;28;20510;-75
2022/05/21 13:53:04;;;;;;;11.82;2.00;;;;;;;27.47;34.59;99615.97;6214995;28;20045;-74
2022/05/21 13:56:06;;;;;;;10.38;2.00;;;;;;;27.62;35.66;99623.69;6231545;28;20136;-74
2022/05/21 13:59:25;;;;;;;7.93;2.20;;;;;;;27.48;33.51;99601.50;6235972;28;20046;-74
2022/05/21 14:02:46;;;;;;;6.68;2.03;;;;;;;27.23;34.77;99622.88;6244750;28;20419;-74
2022/05/21 14:05:50;;;;;;;;;;;;;;;27.48;34.65;99606.88;6214919;28;20049;-74
2022/05/21 14:08:56;;;;;;;11.52;2.05;;;;;;;27.42;34.97;99615.78;6231767;28;20483;-74
2022/05/21 14:12:04;;;;;;;4.78;2.05;;;;;;;27.25;35.42;99616.25;6249284;28;20053;-73
2022/05/21 14:15:11;;;;;;;8.93;2.13;;;;;;;27.21;35.29;99614.19;6231011;28;20071;-74
2022/05/21 14:18:26;;;;;;;9.23;2.08;;;;;;;27.05;36.78;99612.81;6246632;28;20053;-75
2022/05/21 14:21:27;;;;;;;11.68;2.38;;;;;;;26.84;36.11;99605.88;6230929;28;20400;-73
2022/05/21 14:24:31;;;;;;;7.72;1.92;;;;;;;26.95;35.37;99610.56;6230789;28;20103;-74
2022/05/21 14:27:32;;;;;;;7.18;2.10;;;;;;;26.68;35.95;99609.84;6235655;28;20049;-72
2022/05/21 14:30:42;;;;;;;9.93;2.50;;;;;;;26.63;36.44;99601.63;6214928;28;20099;-74
2022/05/21 14:33:58;;;;;;;6.85;2.15;;;;;;;26.70;35.41;99589.03;6182468;28;20469;-72
2022/05/21 14:36:59;;;;;;;6.82;2.10;;;;;;;26.70;36.28;99579.16;6188827;28;20078;-72
2022/05/21 14:40:00;;;;;;;12.65;2.05;;;;;;;26.85;36.04;99572.72;6174615;28;20051;-73
2022/05/21 14:43:06;;;;;;;8.30;2.33;;;;;;;27.02;35.11;99576.59;6176400;28;20050;-72
2022/05/21 14:49:27;;;;;;;5.25;1.80;;;;;;;26.97;34.18;99581.75;6199104;28;20473;-72
2022/05/21 14:55:50;;;;;;;6.65;1.83;;;;;;;27.09;32.52;99577.38;6197075;28;20069;-73
2022/05/21 14:58:53;;;;;;;7.00;1.42;;;;;;;27.19;33.70;99584.94;6189675;28;20105;-72
2022/05/21 15:01:53;;;;;;;6.35;1.65;;;;;;;27.19;33.24;99595.66;6174049;28;20402;-74
2022/05/21 15:04:54;;;;;;;6.75;1.58;;;;;;;27.11;33.11;99575.28;6198061;28;20050;-73
2022/05/21 15:07:58;;;;;;;8.33;1.70;;;;;;;26.98;30.89;99558.50;6181894;28;20104;-73